createdAt,value
2023-05-18T00:00:19.487Z,63.25
2023-05-18T00:02:50.314Z,63.62
2023-05-18T00:05:21.690Z,63.12
2023-05-18T00:07:53.911Z,63.60
2023-05-18T00:10:24.965Z,63.76
2023-05-18T00:12:55.683Z,64.09
2023-05-18T00:15:26.475Z,64.34
2023-05-18T00:17:57.171Z,64.59
2023-05-18T00:20:29.538Z,64.81
2023-05-18T00:23:01.044Z,64.36
2023-05-18T00:25:32.764Z,64.79
2023-05-18T00:28:03.375Z,64.57
2023-05-18T00:30:34.272Z,64.92
2023-05-18T00:33:04.990Z,65.11
2023-05-18T00:35:35.585Z,65.25
2023-05-18T00:38:06.430Z,65.53
2023-05-18T00:40:36.988Z,65.60
2023-05-18T00:43:07.617Z,65.91
2023-05-18T00:45:39.209Z,66.00
2023-05-18T00:48:10.045Z,66.03
2023-05-18T00:50:41.344Z,66.06
2023-05-18T00:53:13.123Z,66.24
2023-05-18T00:55:44.200Z,66.37
2023-05-18T00:58:14.803Z,66.51
2023-05-18T01:00:45.418Z,66.45
2023-05-18T01:03:16.487Z,66.47
2023-05-18T01:05:49.153Z,66.78
2023-05-18T01:08:21.651Z,66.56
2023-05-18T01:10:55.457Z,67.24
2023-05-18T01:13:34.734Z,66.54
2023-05-18T01:16:08.539Z,66.99
2023-05-18T01:18:43.602Z,67.56
2023-05-18T01:21:25.742Z,67.33
2023-05-18T01:24:03.577Z,67.17
2023-05-18T01:26:40.247Z,66.94
2023-05-18T01:29:15.061Z,67.23
2023-05-18T01:31:45.735Z,67.14
2023-05-18T01:34:16.511Z,67.34
2023-05-18T01:36:47.080Z,67.50
2023-05-18T01:39:19.998Z,67.82
2023-05-18T01:41:59.842Z,67.73
2023-05-18T01:44:39.408Z,67.64
2023-05-18T01:47:16.189Z,67.30
2023-05-18T01:50:01.752Z,68.02
2023-05-18T01:52:38.406Z,67.93
2023-05-18T01:55:11.217Z,68.30
2023-05-18T01:57:45.942Z,68.00
2023-05-18T02:00:18.607Z,68.33
2023-05-18T02:02:50.121Z,68.77
2023-05-18T02:05:20.992Z,69.15
2023-05-18T02:07:51.505Z,68.51
2023-05-18T02:10:22.118Z,68.34
2023-05-18T02:12:53.875Z,68.38
2023-05-18T02:15:24.843Z,68.61
2023-05-18T02:17:57.248Z,68.82
2023-05-18T02:20:30.725Z,68.81
2023-05-18T02:23:01.698Z,68.57
2023-05-18T02:25:32.581Z,68.74
2023-05-18T02:28:03.344Z,68.64
2023-05-18T02:30:36.467Z,68.54
2023-05-18T02:33:08.798Z,69.04
2023-05-18T02:35:41.206Z,68.81
2023-05-18T02:38:12.018Z,69.11
2023-05-18T02:40:42.624Z,69.33
2023-05-18T02:43:14.242Z,69.32
2023-05-18T02:45:44.935Z,69.59
2023-05-18T02:48:15.768Z,69.83
2023-05-18T02:50:47.292Z,69.77
2023-05-18T02:53:17.878Z,70.00
2023-05-18T02:55:48.776Z,69.59
2023-05-18T02:58:20.352Z,70.09
2023-05-18T03:00:53.104Z,70.32
2023-05-18T03:03:26.880Z,70.38
2023-05-18T03:05:59.083Z,70.83
2023-05-18T03:08:32.690Z,71.11
2023-05-18T03:11:03.485Z,70.92
2023-05-18T03:13:34.272Z,70.99
2023-05-18T03:16:05.507Z,71.19
2023-05-18T03:18:36.098Z,71.10
2023-05-18T03:21:08.074Z,71.09
2023-05-18T03:23:38.654Z,71.68
2023-05-18T03:26:11.845Z,71.83
2023-05-18T03:28:42.434Z,72.16
2023-05-18T03:31:14.700Z,72.18
2023-05-18T03:33:45.149Z,72.26
2023-05-18T03:36:16.734Z,72.22
2023-05-18T03:38:47.358Z,72.40
2023-05-18T03:41:22.245Z,72.30
2023-05-18T03:43:52.792Z,72.35
2023-05-18T03:46:23.554Z,72.36
2023-05-18T03:48:54.680Z,72.39
2023-05-18T03:51:26.941Z,72.72
2023-05-18T03:53:57.887Z,72.85
2023-05-18T03:56:30.226Z,72.50
2023-05-18T03:59:00.878Z,72.42
2023-05-18T04:01:35.339Z,72.25
2023-05-18T04:04:05.972Z,72.57
2023-05-18T04:06:37.280Z,72.56
2023-05-18T04:09:07.720Z,72.47
2023-05-18T04:11:38.327Z,72.75
2023-05-18T04:14:14.116Z,72.60
2023-05-18T04:16:44.908Z,72.67
2023-05-18T04:19:18.166Z,72.73
2023-05-18T04:21:49.321Z,72.59
2023-05-18T04:24:20.336Z,72.59
2023-05-18T04:26:52.612Z,71.65
2023-05-18T04:29:23.135Z,71.80
2023-05-18T04:31:56.508Z,71.82
2023-05-18T04:34:28.400Z,71.56
2023-05-18T04:36:59.356Z,71.88
2023-05-18T04:39:30.251Z,71.67
2023-05-18T04:42:01.433Z,70.47
2023-05-18T04:44:34.036Z,70.33
2023-05-18T04:47:04.823Z,69.78
2023-05-18T04:49:35.441Z,69.75
2023-05-18T04:52:07.936Z,69.03
2023-05-18T04:54:40.194Z,64.74
2023-05-18T04:57:10.912Z,59.17
2023-05-18T04:59:42.510Z,54.92
2023-05-18T05:02:13.132Z,51.85
2023-05-18T05:04:43.654Z,49.47
2023-05-18T05:07:14.205Z,48.26
2023-05-18T05:09:46.515Z,47.18
2023-05-18T05:12:17.200Z,47.97
2023-05-18T05:14:47.736Z,49.73
2023-05-18T05:17:19.952Z,51.86
2023-05-18T05:19:50.607Z,49.14
2023-05-18T05:22:24.447Z,47.64
2023-05-18T05:24:55.798Z,42.79
2023-05-18T05:27:27.834Z,41.96
2023-05-18T05:29:58.452Z,40.44
2023-05-18T05:32:29.521Z,38.83
2023-05-18T05:35:00.189Z,36.97
2023-05-18T05:37:32.037Z,39.68
2023-05-18T05:40:03.628Z,43.28
2023-05-18T05:42:34.776Z,44.60
2023-05-18T05:45:06.121Z,42.76
2023-05-18T05:47:36.855Z,40.90
2023-05-18T05:50:08.203Z,40.73
2023-05-18T05:52:38.797Z,40.20
2023-05-18T05:55:09.734Z,37.89
2023-05-18T05:57:41.879Z,36.20
2023-05-18T06:00:13.632Z,34.49
2023-05-18T06:02:44.268Z,34.67
2023-05-18T06:05:15.020Z,33.23
2023-05-18T06:07:45.503Z,31.59
2023-05-18T06:10:18.843Z,33.16
2023-05-18T06:12:49.560Z,32.98
2023-05-18T06:15:20.599Z,33.40
2023-05-18T06:17:51.178Z,35.66
2023-05-18T06:20:22.905Z,35.12
2023-05-18T06:22:54.252Z,36.32
2023-05-18T06:25:24.988Z,33.51
2023-05-18T06:27:55.920Z,32.84
2023-05-18T06:30:26.643Z,34.64
2023-05-18T06:32:57.272Z,35.13
2023-05-18T06:35:28.013Z,40.65
2023-05-18T06:37:58.714Z,40.18
2023-05-18T06:40:29.914Z,37.14
2023-05-18T06:43:00.925Z,37.33
2023-05-18T06:45:32.604Z,39.19
2023-05-18T06:48:04.409Z,39.37
2023-05-18T06:50:34.982Z,44.35
2023-05-18T06:53:06.558Z,50.10
2023-05-18T06:55:37.892Z,53.66
2023-05-18T06:58:08.597Z,54.91
2023-05-18T07:00:39.737Z,56.70
2023-05-18T07:03:10.940Z,56.73
2023-05-18T07:05:42.201Z,56.35
2023-05-18T07:08:12.958Z,56.24
2023-05-18T07:10:43.578Z,55.59
2023-05-18T07:13:14.202Z,56.10
2023-05-18T07:15:45.139Z,55.98
2023-05-18T07:18:15.727Z,54.87
2023-05-18T07:20:46.614Z,55.37
2023-05-18T07:23:19.610Z,56.02
2023-05-18T07:25:52.239Z,56.89
2023-05-18T07:28:24.452Z,58.30
2023-05-18T07:30:55.136Z,57.10
2023-05-18T07:33:26.598Z,55.70
2023-05-18T07:35:57.320Z,55.65
2023-05-18T07:38:29.347Z,55.53
2023-05-18T07:41:01.574Z,55.49
2023-05-18T07:43:32.158Z,55.07
2023-05-18T07:46:02.680Z,53.77
2023-05-18T07:48:34.816Z,54.03
2023-05-18T07:51:07.305Z,52.90
2023-05-18T07:53:38.077Z,51.93
2023-05-18T07:56:09.190Z,49.96
2023-05-18T07:58:41.387Z,50.01
2023-05-18T08:01:12.169Z,49.52
2023-05-18T08:03:42.895Z,49.41
2023-05-18T08:06:14.718Z,49.55
2023-05-18T08:08:45.384Z,49.85
2023-05-18T08:11:17.502Z,49.18
2023-05-18T08:13:47.951Z,48.55
2023-05-18T08:16:18.473Z,49.16
2023-05-18T08:18:48.954Z,49.83
2023-05-18T08:21:19.772Z,48.80
2023-05-18T08:23:50.635Z,48.66
2023-05-18T08:26:22.124Z,49.90
2023-05-18T08:28:52.652Z,47.87
2023-05-18T08:31:23.151Z,47.92
2023-05-18T08:33:53.937Z,47.88
2023-05-18T08:36:25.071Z,47.80
2023-05-18T08:38:55.596Z,48.27
2023-05-18T08:41:32.321Z,48.38
2023-05-18T08:44:08.609Z,48.28
2023-05-18T08:46:42.668Z,48.76
2023-05-18T08:49:13.882Z,48.13
2023-05-18T08:51:50.908Z,47.52
2023-05-18T08:54:23.651Z,47.11
2023-05-18T08:56:55.203Z,45.94
2023-05-18T08:59:28.329Z,45.27
2023-05-18T09:02:01.050Z,44.44
2023-05-18T09:04:37.134Z,43.67
2023-05-18T09:07:11.030Z,43.41
2023-05-18T09:09:44.038Z,43.52
2023-05-18T09:12:15.691Z,44.94
2023-05-18T09:14:47.468Z,46.65
2023-05-18T09:17:18.161Z,46.51
2023-05-18T09:19:48.750Z,46.13
2023-05-18T09:22:20.106Z,47.52
2023-05-18T09:24:50.825Z,48.58
2023-05-18T09:27:22.341Z,49.00
2023-05-18T09:29:57.637Z,48.07
2023-05-18T09:32:29.830Z,46.56
2023-05-18T09:35:06.781Z,47.15
2023-05-18T09:37:37.426Z,46.39
2023-05-18T09:40:11.576Z,45.44
2023-05-18T09:42:45.083Z,45.23
2023-05-18T09:45:25.609Z,44.15
2023-05-18T09:47:57.099Z,43.64
2023-05-18T09:50:27.944Z,42.36
2023-05-18T09:52:58.888Z,42.30
2023-05-18T09:55:29.734Z,42.85
2023-05-18T09:58:02.426Z,42.34
2023-05-18T10:00:33.098Z,41.60
2023-05-18T10:03:04.134Z,40.86
2023-05-18T10:05:36.291Z,41.18
2023-05-18T10:08:07.114Z,40.96
2023-05-18T10:10:41.031Z,42.19
2023-05-18T10:13:15.194Z,45.48
2023-05-18T10:15:51.458Z,44.70
2023-05-18T10:18:27.492Z,45.71
2023-05-18T10:21:00.714Z,44.62
2023-05-18T10:23:36.352Z,43.79
2023-05-18T10:26:09.702Z,44.11
2023-05-18T10:28:47.476Z,43.65
2023-05-18T10:31:19.240Z,44.07
2023-05-18T10:33:52.691Z,44.20
2023-05-18T10:36:25.861Z,44.37
2023-05-18T10:38:59.169Z,45.15
2023-05-18T10:41:32.564Z,45.10
2023-05-18T10:44:04.320Z,45.04
2023-05-18T10:46:36.741Z,44.79
2023-05-18T10:49:10.675Z,43.98
2023-05-18T10:51:44.712Z,43.99
2023-05-18T10:54:18.298Z,43.98
2023-05-18T10:56:53.630Z,44.75
2023-05-18T10:59:24.824Z,45.22
2023-05-18T11:01:58.484Z,45.00
2023-05-18T11:04:31.034Z,44.76
2023-05-18T11:07:02.444Z,44.41
2023-05-18T11:09:32.919Z,44.03
2023-05-18T11:12:03.963Z,43.23
2023-05-18T11:14:36.711Z,43.22
2023-05-18T11:17:27.565Z,43.49
2023-05-18T11:20:11.910Z,44.62
2023-05-18T11:22:45.585Z,44.22
2023-05-18T11:25:30.275Z,43.20
2023-05-18T11:28:11.943Z,41.91
2023-05-18T11:30:45.601Z,42.11
2023-05-18T11:33:19.264Z,42.29
2023-05-18T11:36:01.561Z,42.11
2023-05-18T11:38:54.947Z,41.73
2023-05-18T11:41:41.242Z,40.92
2023-05-18T11:44:17.288Z,42.37
2023-05-18T11:46:56.488Z,42.73
2023-05-18T11:49:35.918Z,44.12
2023-05-18T11:52:23.365Z,44.22
2023-05-18T11:54:59.280Z,44.08
2023-05-18T11:57:39.252Z,43.49
2023-05-18T12:00:12.990Z,43.15
2023-05-18T12:02:46.398Z,42.60
2023-05-18T12:05:18.952Z,42.72
2023-05-18T12:07:57.080Z,42.50
2023-05-18T12:10:29.173Z,41.47
2023-05-18T12:13:01.617Z,40.56
2023-05-18T12:15:33.060Z,40.51
2023-05-18T12:18:04.179Z,41.76
2023-05-18T12:20:35.905Z,42.30
2023-05-18T12:23:06.470Z,43.31
2023-05-18T12:25:37.548Z,43.38
2023-05-18T12:28:09.563Z,42.79
2023-05-18T12:30:40.284Z,41.21
2023-05-18T12:33:13.060Z,39.93
2023-05-18T12:35:43.887Z,40.12
2023-05-18T12:38:17.538Z,40.79
2023-05-18T12:40:48.957Z,41.62
2023-05-18T12:43:19.802Z,41.51
2023-05-18T12:45:50.982Z,41.04
2023-05-18T12:48:23.337Z,40.91
2023-05-18T12:50:55.618Z,40.45
2023-05-18T12:53:26.631Z,41.09
2023-05-18T12:56:01.776Z,41.07
2023-05-18T12:58:33.053Z,40.73
2023-05-18T13:01:10.908Z,41.99
2023-05-18T13:03:42.524Z,42.98
2023-05-18T13:06:13.260Z,41.99
2023-05-18T13:08:47.052Z,42.13
2023-05-18T13:11:19.140Z,41.50
2023-05-18T13:14:05.736Z,40.54
2023-05-18T13:16:42.008Z,41.30
2023-05-18T13:19:14.390Z,40.14
2023-05-18T13:21:46.702Z,40.09
2023-05-18T13:24:17.263Z,40.18
2023-05-18T13:26:48.640Z,40.83
2023-05-18T13:29:19.423Z,40.36
2023-05-18T13:31:49.964Z,40.49
2023-05-18T13:34:20.815Z,41.14
2023-05-18T13:36:52.079Z,42.00
2023-05-18T13:39:22.841Z,42.77
2023-05-18T13:41:53.317Z,42.29
2023-05-18T13:44:23.866Z,42.08
2023-05-18T13:46:54.399Z,41.23
2023-05-18T13:49:25.355Z,41.22
2023-05-18T13:51:56.078Z,40.58
2023-05-18T13:54:26.666Z,40.40
2023-05-18T13:56:57.347Z,40.53
2023-05-18T13:59:27.828Z,40.41
2023-05-18T14:01:58.364Z,39.46
2023-05-18T14:04:30.209Z,40.37
2023-05-18T14:07:00.812Z,40.65
2023-05-18T14:09:31.297Z,41.30
2023-05-18T14:12:02.206Z,41.09
2023-05-18T14:14:32.796Z,41.12
2023-05-18T14:17:04.972Z,40.63
2023-05-18T14:19:36.177Z,40.32
2023-05-18T14:22:07.027Z,40.37
2023-05-18T14:24:37.537Z,40.28
2023-05-18T14:27:08.057Z,40.68
2023-05-18T14:29:38.751Z,41.19
2023-05-18T14:32:09.483Z,41.41
2023-05-18T14:34:40.010Z,41.12
2023-05-18T14:37:10.502Z,40.51
2023-05-18T14:39:41.093Z,40.11
2023-05-18T14:42:14.122Z,40.10
2023-05-18T14:44:44.618Z,39.76
2023-05-18T14:47:17.865Z,39.72
2023-05-18T14:49:48.951Z,39.69
2023-05-18T14:52:19.545Z,40.25
2023-05-18T14:54:50.052Z,39.75
2023-05-18T14:57:20.675Z,39.11
2023-05-18T14:59:51.470Z,38.60
2023-05-18T15:02:23.030Z,37.89
2023-05-18T15:04:53.597Z,38.24
2023-05-18T15:07:26.525Z,38.48
2023-05-18T15:09:57.643Z,38.49
2023-05-18T15:16:34.431Z,39.27
2023-05-18T15:18:28.361Z,39.32
2023-05-18T15:21:19.530Z,38.68
2023-05-18T15:23:51.718Z,38.29
2023-05-18T15:26:28.337Z,38.14
2023-05-18T15:29:25.524Z,37.98
2023-05-18T15:32:11.147Z,38.14
2023-05-18T15:34:42.745Z,37.86
2023-05-18T15:37:16.369Z,39.32
2023-05-18T15:39:48.582Z,39.93
2023-05-18T15:42:19.953Z,39.68
2023-05-18T15:44:50.548Z,39.69
2023-05-18T15:47:21.122Z,39.53
2023-05-18T15:49:51.654Z,39.32
2023-05-18T15:52:22.229Z,38.84
2023-05-18T15:54:52.789Z,38.18
2023-05-18T15:57:23.348Z,38.14
2023-05-18T15:59:54.197Z,38.16
2023-05-18T16:02:25.894Z,38.29
2023-05-18T16:04:56.923Z,38.68
2023-05-18T16:07:27.488Z,39.68
2023-05-18T16:09:58.035Z,40.23
2023-05-18T16:12:30.832Z,40.07
2023-05-18T16:15:01.418Z,39.77
2023-05-18T16:17:31.963Z,39.47
2023-05-18T16:20:04.264Z,39.55
2023-05-18T16:22:35.052Z,38.88
2023-05-18T16:25:06.021Z,38.72
2023-05-18T16:27:36.508Z,39.37
2023-05-18T16:30:08.227Z,39.08
2023-05-18T16:32:40.362Z,39.22
2023-05-18T16:35:13.853Z,40.12
2023-05-18T16:37:44.335Z,40.26
2023-05-18T16:40:15.390Z,41.14
2023-05-18T16:42:47.528Z,41.02
2023-05-18T16:45:20.951Z,40.89
2023-05-18T16:47:51.571Z,40.76
2023-05-18T16:50:24.101Z,40.73
2023-05-18T16:52:55.607Z,40.57
2023-05-18T16:55:26.615Z,40.21
2023-05-18T16:57:58.206Z,40.44
2023-05-18T17:00:31.057Z,40.48
2023-05-18T17:03:04.791Z,40.94
2023-05-18T17:05:35.996Z,41.14
2023-05-18T17:08:11.142Z,41.58
2023-05-18T17:10:44.024Z,41.97
2023-05-18T17:13:16.247Z,41.88
2023-05-18T17:15:51.097Z,41.30
2023-05-18T17:18:20.308Z,41.44
2023-05-18T17:20:51.515Z,40.99
2023-05-18T17:23:22.092Z,40.55
2023-05-18T17:26:00.849Z,40.79
2023-05-18T17:28:26.619Z,40.87
2023-05-18T17:30:57.376Z,41.19
2023-05-18T17:33:27.927Z,41.48
2023-05-18T17:35:59.984Z,41.86
2023-05-18T17:38:30.747Z,42.61
2023-05-18T17:41:02.918Z,42.53
2023-05-18T17:43:33.382Z,42.38
2023-05-18T17:46:06.365Z,42.76
2023-05-18T17:48:38.530Z,42.69
2023-05-18T17:51:09.447Z,43.24
2023-05-18T17:53:42.510Z,43.43
2023-05-18T17:56:13.316Z,42.92
2023-05-18T17:58:43.967Z,43.14
2023-05-18T18:01:14.656Z,43.03
2023-05-18T18:03:45.475Z,43.38
2023-05-18T18:06:18.005Z,43.46
2023-05-18T18:08:57.172Z,43.63
2023-05-18T18:11:28.327Z,43.50
2023-05-18T18:13:59.586Z,43.24
2023-05-18T18:16:30.346Z,43.51
2023-05-18T18:19:02.687Z,43.87
2023-05-18T18:21:33.179Z,43.97
2023-05-18T18:24:03.792Z,44.10
2023-05-18T18:26:35.975Z,43.87
2023-05-18T18:29:06.984Z,43.93
2023-05-18T18:31:37.567Z,44.21
2023-05-18T18:34:08.405Z,44.38
2023-05-18T18:36:41.226Z,44.46
2023-05-18T18:39:12.373Z,44.58
2023-05-18T18:41:44.374Z,45.12
2023-05-18T18:44:14.826Z,45.34
2023-05-18T18:46:46.624Z,45.11
2023-05-18T18:49:17.151Z,45.40
2023-05-18T18:51:48.291Z,45.77
2023-05-18T18:54:18.839Z,45.89
2023-05-18T18:56:49.562Z,45.82
2023-05-18T18:59:19.997Z,46.37
2023-05-18T19:01:50.624Z,46.31
2023-05-18T19:04:22.553Z,46.35
2023-05-18T19:06:54.735Z,46.54
2023-05-18T19:09:25.549Z,46.50
2023-05-18T19:11:58.070Z,46.56
2023-05-18T19:14:28.763Z,46.83
2023-05-18T19:16:59.526Z,46.99
2023-05-18T19:19:31.887Z,47.17
2023-05-18T19:22:02.404Z,46.86
2023-05-18T19:24:33.511Z,47.38
2023-05-18T19:27:04.429Z,47.29
2023-05-18T19:29:36.946Z,47.71
2023-05-18T19:32:07.981Z,47.53
2023-05-18T19:34:40.441Z,48.01
2023-05-18T19:37:11.264Z,48.56
2023-05-18T19:39:45.546Z,48.97
2023-05-18T19:42:16.087Z,48.70
2023-05-18T19:44:46.889Z,48.86
2023-05-18T19:47:17.365Z,49.08
2023-05-18T19:49:47.901Z,48.73
2023-05-18T19:52:21.838Z,48.82
2023-05-18T19:54:52.475Z,49.20
2023-05-18T19:57:22.959Z,49.21
2023-05-18T19:59:54.208Z,51.20
2023-05-18T20:02:24.818Z,53.02
2023-05-18T20:04:55.439Z,54.04
2023-05-18T20:07:28.337Z,54.72
2023-05-18T20:09:59.351Z,56.04
2023-05-18T20:12:31.338Z,56.73
2023-05-18T20:15:03.672Z,57.28
2023-05-18T20:17:34.537Z,57.98
2023-05-18T20:20:07.036Z,58.28
2023-05-18T20:22:38.559Z,59.48
2023-05-18T20:25:10.149Z,59.91
2023-05-18T20:27:40.861Z,60.39
2023-05-18T20:30:12.422Z,60.73
2023-05-18T20:32:44.674Z,60.99
2023-05-18T20:35:15.896Z,61.28
2023-05-18T20:37:46.670Z,61.70
2023-05-18T20:40:17.124Z,61.86
2023-05-18T20:42:47.894Z,62.03
2023-05-18T20:45:18.437Z,62.14
2023-05-18T20:47:51.069Z,62.39
2023-05-18T20:50:24.306Z,62.52
2023-05-18T20:52:54.845Z,62.73
2023-05-18T20:55:25.771Z,62.95
2023-05-18T20:57:56.315Z,63.06
2023-05-18T21:00:26.775Z,63.01
2023-05-18T21:02:57.713Z,63.35
2023-05-18T21:05:28.385Z,63.40
2023-05-18T21:07:59.329Z,63.73
2023-05-18T21:10:30.138Z,63.89
2023-05-18T21:13:01.000Z,63.94
2023-05-18T21:15:33.241Z,63.99
2023-05-18T21:18:05.059Z,64.04
2023-05-18T21:20:38.007Z,64.09
2023-05-18T21:23:08.685Z,64.25
2023-05-18T21:25:39.183Z,64.27
2023-05-18T21:28:10.326Z,64.43
2023-05-18T21:30:42.407Z,64.39
2023-05-18T21:33:13.214Z,64.56
2023-05-18T21:35:44.386Z,64.71
2023-05-18T21:38:14.937Z,64.65
2023-05-18T21:40:46.615Z,64.69
2023-05-18T21:43:17.518Z,64.83
2023-05-18T21:45:52.299Z,64.88
2023-05-18T21:48:23.314Z,64.85
2023-05-18T21:50:53.792Z,65.01
2023-05-18T21:53:24.982Z,65.11
2023-05-18T21:55:55.511Z,65.01
2023-05-18T21:58:26.167Z,65.03
2023-05-18T22:00:56.779Z,64.65
2023-05-18T22:03:27.664Z,64.78
2023-05-18T22:05:58.466Z,64.90
2023-05-18T22:08:29.312Z,65.11
2023-05-18T22:10:59.912Z,65.03
2023-05-18T22:13:30.773Z,65.01
2023-05-18T22:16:01.496Z,65.17
2023-05-18T22:18:32.416Z,65.37
2023-05-18T22:21:03.018Z,65.42
2023-05-18T22:23:35.595Z,65.49
2023-05-18T22:26:07.406Z,65.11
2023-05-18T22:28:41.647Z,65.33
2023-05-18T22:31:12.606Z,65.54
2023-05-18T22:33:43.769Z,65.75
2023-05-18T22:36:14.939Z,65.79
2023-05-18T22:38:46.020Z,66.05
2023-05-18T22:41:17.178Z,65.80
2023-05-18T22:43:47.758Z,66.12
2023-05-18T22:46:20.683Z,66.12
2023-05-18T22:48:53.129Z,66.20
2023-05-18T22:51:23.631Z,66.67
2023-05-18T22:53:54.165Z,66.63
2023-05-18T22:56:27.094Z,66.58
2023-05-18T22:58:57.586Z,66.82
2023-05-18T23:01:28.125Z,66.74
2023-05-18T23:04:00.226Z,66.74
2023-05-18T23:06:31.650Z,66.82
2023-05-18T23:09:02.132Z,66.89
2023-05-18T23:11:34.189Z,66.86
2023-05-18T23:14:04.691Z,66.75
2023-05-18T23:16:35.466Z,66.99
2023-05-18T23:19:07.677Z,67.32
2023-05-18T23:21:40.514Z,67.10
2023-05-18T23:24:13.577Z,67.20
2023-05-18T23:26:45.086Z,67.11
2023-05-18T23:29:15.924Z,67.17
2023-05-18T23:31:46.409Z,67.10
2023-05-18T23:34:18.503Z,66.91
2023-05-18T23:36:52.903Z,67.12
2023-05-18T23:39:23.582Z,67.04
2023-05-18T23:41:57.053Z,67.27
2023-05-18T23:44:29.609Z,67.40
2023-05-18T23:47:00.910Z,67.48
2023-05-18T23:49:31.988Z,67.30
2023-05-18T23:52:03.597Z,67.33
2023-05-18T23:54:35.131Z,67.09
2023-05-18T23:57:10.697Z,67.39
2023-05-18T23:59:42.656Z,67.55
